Time;durP1;ratioP1;P1;durP2;ratioP2;P2;SDS_P1;SDS_P2;PMS_P1;PMS_P2;Temp;Humidity;BMP_temperature;BMP_pressure;BME280_temperature;BME280_humidity;BME280_pressure;Samples;Min_cycle;Max_cycle;Signal;HPM_P1;HPM_P2
2022/07/12 00:01:18;;;;;;;27.42;20.58;;;;;;;14.22;90.91;100158.88;5115425;28;20362;-57
2022/07/12 00:03:43;;;;;;;29.58;20.80;;;;;;;14.04;92.00;100157.22;5112490;28;20138;-56
2022/07/12 00:06:08;;;;;;;28.17;20.02;;;;;;;13.81;92.39;100155.47;5116604;28;20031;-56
2022/07/12 00:08:34;;;;;;;34.13;22.17;;;;;;;13.74;97.07;100160.19;5115284;28;20019;-57
2022/07/12 00:10:59;;;;;;;29.13;20.98;;;;;;;13.74;94.97;100157.50;5118384;28;20030;-57
2022/07/12 00:13:25;;;;;;;32.45;22.27;;;;;;;13.83;94.51;100150.66;5094870;28;20016;-56
2022/07/12 00:15:50;;;;;;;32.13;21.92;;;;;;;13.89;93.64;100156.97;5117116;28;20031;-57
2022/07/12 00:18:15;;;;;;;34.45;21.30;;;;;;;13.88;93.13;100156.16;5098725;28;20024;-56
2022/07/12 00:20:41;;;;;;;30.70;22.83;;;;;;;13.81;94.05;100150.09;5122570;28;20412;-56
2022/07/12 00:23:06;;;;;;;30.38;20.85;;;;;;;13.75;94.31;100146.47;5122328;28;20393;-57
2022/07/12 00:25:32;;;;;;;32.08;22.77;;;;;;;13.82;95.39;100146.31;5113579;28;20032;-57
2022/07/12 00:27:57;;;;;;;29.52;21.88;;;;;;;13.73;93.81;100139.69;5121910;28;20032;-56
2022/07/12 00:30:23;;;;;;;29.55;21.38;;;;;;;13.62;94.73;100138.66;5113867;28;20024;-56
2022/07/12 00:32:49;;;;;;;30.00;21.48;;;;;;;13.68;94.96;100136.88;5117914;28;20038;-56
2022/07/12 00:35:14;;;;;;;34.00;23.38;;;;;;;13.68;97.53;100134.19;5113564;28;20028;-57
2022/07/12 00:37:40;;;;;;;33.35;23.88;;;;;;;13.73;97.85;100137.00;5086262;28;20478;-56
2022/07/12 00:40:06;;;;;;;31.50;22.83;;;;;;;13.73;96.94;100131.63;5119695;28;20118;-57
2022/07/12 00:42:32;;;;;;;33.72;24.23;;;;;;;13.73;97.97;100131.63;5098652;28;20039;-57
2022/07/12 00:44:58;;;;;;;28.98;21.30;;;;;;;13.68;95.75;100134.19;5098630;28;20069;-56
2022/07/12 00:47:44;;;;;;;27.98;21.33;;;;;;;13.64;94.81;100124.97;5117668;28;20144;-56
2022/07/12 00:50:19;;;;;;;27.20;20.55;;;;;;;13.50;95.05;100121.72;5111196;27;20070;-56
2022/07/12 00:52:46;;;;;;;24.20;18.45;;;;;;;12.90;94.00;100109.44;5115870;27;20023;-56
2022/07/12 00:55:11;;;;;;;27.60;20.92;;;;;;;13.20;95.81;100116.53;5088413;27;20492;-56
2022/07/12 00:57:38;;;;;;;30.58;20.00;;;;;;;13.25;95.84;100114.75;5120525;27;20031;-56
2022/07/12 01:00:05;;;;;;;31.80;20.48;;;;;;;13.19;94.49;100123.78;5101833;28;20031;-56
2022/07/12 01:02:31;;;;;;;28.38;21.05;;;;;;;13.01;97.01;100119.38;5124161;27;20168;-56
2022/07/12 01:04:56;;;;;;;29.95;21.60;;;;;;;13.22;97.40;100117.91;5124261;27;20020;-57
2022/07/12 01:07:25;;;;;;;30.52;22.30;;;;;;;13.23;97.15;100116.03;5103900;27;20039;-56
2022/07/12 01:09:51;;;;;;;36.50;25.00;;;;;;;13.14;100.00;100118.31;5122832;27;20050;-57
2022/07/12 01:12:18;;;;;;;34.78;24.90;;;;;;;13.04;99.41;100120.78;5124962;27;20469;-57
2022/07/12 01:14:43;;;;;;;35.97;24.98;;;;;;;12.90;100.00;100129.13;5103795;27;20035;-56
2022/07/12 01:17:09;;;;;;;37.60;25.10;;;;;;;13.05;100.00;100125.91;5081712;28;20024;-56
2022/07/12 01:19:34;;;;;;;41.83;25.90;;;;;;;13.16;100.00;100124.28;5102113;27;20057;-56
2022/07/12 01:22:00;;;;;;;30.45;21.52;;;;;;;12.95;96.15;100125.69;5102320;27;20462;-56
2022/07/12 01:24:25;;;;;;;26.77;20.17;;;;;;;12.88;95.77;100135.75;5119611;27;20027;-56
2022/07/12 01:26:51;;;;;;;27.48;19.85;;;;;;;12.58;94.58;100136.72;5118399;27;20034;-57
2022/07/12 01:29:16;;;;;;;27.58;20.20;;;;;;;12.19;96.58;100139.00;5084171;28;20023;-56
2022/07/12 01:31:42;;;;;;;31.75;21.05;;;;;;;12.29;100.00;100139.25;5102200;27;20027;-57
2022/07/12 01:34:07;;;;;;;29.55;21.48;;;;;;;12.48;98.98;100129.22;5087762;27;20050;-57
2022/07/12 01:36:32;;;;;;;37.40;24.83;;;;;;;12.62;100.00;100127.13;5080144;27;20032;-55
2022/07/12 01:38:58;;;;;;;40.70;26.45;;;;;;;12.74;99.43;100129.81;5123566;27;20342;-56
2022/07/12 01:41:23;;;;;;;36.03;23.65;;;;;;;12.83;97.68;100138.34;5119102;27;20026;-57
2022/07/12 01:43:52;;;;;;;33.13;22.90;;;;;;;12.80;96.45;100134.25;5119180;27;20478;-55
2022/07/12 01:46:17;;;;;;;35.47;23.48;;;;;;;12.73;95.38;100133.56;5119967;27;20525;-58
2022/07/12 01:48:43;;;;;;;29.67;21.45;;;;;;;12.66;95.51;100133.69;5102521;28;20035;-55
2022/07/12 01:51:08;;;;;;;32.15;22.08;;;;;;;12.71;95.61;100127.59;5104813;28;20028;-58
2022/07/12 01:53:35;;;;;;;38.00;22.27;;;;;;;12.68;95.31;100128.03;5120513;27;20023;-55
2022/07/12 01:56:00;;;;;;;28.30;21.02;;;;;;;12.60;94.82;100134.59;5104062;27;20092;-54
2022/07/12 01:58:25;;;;;;;28.98;20.80;;;;;;;12.57;94.73;100134.25;5085711;27;20024;-57
2022/07/12 02:00:52;;;;;;;28.25;20.27;;;;;;;12.50;95.08;100129.81;5126067;27;20031;-55
2022/07/12 02:03:20;;;;;;;28.05;19.38;;;;;;;12.23;94.42;100132.13;5119518;27;20035;-55
2022/07/12 02:05:46;;;;;;;32.67;22.35;;;;;;;11.93;97.88;100128.66;5099323;27;20036;-55
2022/07/12 02:08:15;;;;;;;37.00;22.85;;;;;;;12.06;100.00;100128.47;5117566;27;20042;-54
2022/07/12 02:10:40;;;;;;;39.92;25.05;;;;;;;12.32;100.00;100123.72;5085084;27;20023;-54
2022/07/12 02:13:06;;;;;;;36.28;25.42;;;;;;;12.53;100.00;100123.16;5104029;27;20113;-57
2022/07/12 02:15:31;;;;;;;41.08;25.50;;;;;;;12.44;100.00;100127.25;5094658;27;20023;-57
2022/07/12 02:17:57;;;;;;;41.58;26.60;;;;;;;12.59;100.00;100126.78;5119087;27;20034;-57
2022/07/12 02:20:23;;;;;;;43.15;25.95;;;;;;;12.50;100.00;100126.28;5120681;27;20063;-58
2022/07/12 02:22:48;;;;;;;44.72;28.92;;;;;;;12.43;100.00;100128.28;5120706;27;20046;-58
2022/07/12 02:25:14;;;;;;;44.42;27.45;;;;;;;12.37;100.00;100124.66;5124168;27;20027;-57
2022/07/12 02:27:40;;;;;;;45.30;27.65;;;;;;;12.48;100.00;100131.94;5116493;27;20038;-55
2022/07/12 02:30:07;;;;;;;44.22;26.92;;;;;;;12.41;100.00;100131.22;5119300;27;20393;-56
2022/07/12 02:32:32;;;;;;;36.65;24.33;;;;;;;12.32;100.00;100131.78;5100884;27;20477;-57
2022/07/12 02:34:58;;;;;;;41.58;24.20;;;;;;;12.22;100.00;100133.16;5118956;27;20060;-57
2022/07/12 02:37:23;;;;;;;37.67;23.80;;;;;;;12.32;100.00;100132.59;5122842;27;20047;-56
2022/07/12 02:39:49;;;;;;;34.92;23.15;;;;;;;12.23;99.71;100139.34;5117198;27;20377;-56
2022/07/12 02:42:14;;;;;;;32.83;21.95;;;;;;;12.10;98.26;100135.00;5119118;27;20520;-57
2022/07/12 02:44:42;;;;;;;30.40;21.08;;;;;;;12.05;98.12;100137.56;5119465;27;20448;-57
2022/07/12 02:47:07;;;;;;;28.83;21.27;;;;;;;11.94;97.65;100136.50;5114670;27;20035;-57
2022/07/12 02:49:33;;;;;;;29.30;20.08;;;;;;;11.94;99.14;100139.19;5112844;27;20073;-56
2022/07/12 02:51:58;;;;;;;32.33;22.08;;;;;;;11.97;100.00;100143.28;5097858;28;20093;-53
2022/07/12 02:54:24;;;;;;;34.65;23.63;;;;;;;11.98;99.93;100144.91;5117796;27;20031;-57
2022/07/12 02:56:49;;;;;;;34.35;22.80;;;;;;;11.95;99.85;100148.88;5116606;27;20023;-54
2022/07/12 02:59:15;;;;;;;35.53;21.58;;;;;;;11.92;98.94;100143.13;5095922;27;20023;-57
2022/07/12 03:01:40;;;;;;;32.15;22.45;;;;;;;11.91;98.82;100146.88;5122410;27;20376;-58
2022/07/12 03:04:06;;;;;;;37.10;21.67;;;;;;;12.01;98.65;100147.97;5115332;27;20031;-56
2022/07/12 03:06:31;;;;;;;31.05;21.75;;;;;;;11.78;98.74;100143.31;5119551;27;20095;-54
2022/07/12 03:08:56;;;;;;;37.58;24.70;;;;;;;11.89;100.00;100143.59;5116926;27;20420;-55
2022/07/12 03:11:22;;;;;;;38.42;24.45;;;;;;;11.83;100.00;100139.91;5113626;27;20469;-57
2022/07/12 03:13:47;;;;;;;39.90;26.15;;;;;;;11.89;100.00;100148.97;5119819;27;20076;-56
2022/07/12 03:16:13;;;;;;;43.03;25.73;;;;;;;11.89;100.00;100144.41;5116613;27;20497;-57
2022/07/12 03:18:43;;;;;;;36.45;25.33;;;;;;;11.91;100.00;100146.88;5079356;27;20026;-57
2022/07/12 03:21:08;;;;;;;40.13;25.85;;;;;;;11.86;100.00;100144.84;5115601;27;20024;-56
2022/07/12 03:23:33;;;;;;;41.50;27.00;;;;;;;12.00;100.00;100145.50;5121199;27;20068;-57
2022/07/12 03:25:59;;;;;;;47.33;28.75;;;;;;;12.04;100.00;100152.88;5116359;27;20024;-56
2022/07/12 03:28:25;;;;;;;44.50;28.42;;;;;;;12.19;100.00;100144.38;5101306;27;20023;-57
2022/07/12 03:30:51;;;;;;;50.75;31.05;;;;;;;12.15;100.00;100148.56;5118019;27;20110;-56
2022/07/12 03:33:16;;;;;;;42.08;27.10;;;;;;;12.21;100.00;100144.97;5119810;27;20023;-57
2022/07/12 03:35:42;;;;;;;31.40;21.27;;;;;;;12.00;99.63;100150.88;5113702;27;20047;-56
2022/07/12 03:38:07;;;;;;;29.90;19.63;;;;;;;11.73;96.58;100140.50;5121822;27;20027;-56
2022/07/12 03:40:34;;;;;;;34.55;21.67;;;;;;;11.74;98.10;100146.66;5115131;27;20030;-56
2022/07/12 03:42:59;;;;;;;30.48;21.15;;;;;;;11.80;96.36;100145.75;5116192;27;20028;-56
2022/07/12 03:45:25;;;;;;;34.05;23.10;;;;;;;12.15;95.69;100143.19;5115063;27;20031;-57
2022/07/12 03:47:50;;;;;;;35.22;22.75;;;;;;;12.12;95.88;100143.66;5118486;27;20023;-56
2022/07/12 03:50:16;;;;;;;42.42;26.00;;;;;;;12.92;95.71;100142.31;5117183;28;20035;-56
2022/07/12 03:52:41;;;;;;;36.33;23.90;;;;;;;13.71;90.54;100149.88;5122015;28;20028;-56
2022/07/12 03:55:08;;;;;;;33.28;19.20;;;;;;;13.96;84.44;100142.28;5120753;28;20462;-55
2022/07/12 03:57:33;;;;;;;28.20;19.45;;;;;;;14.41;81.68;100144.09;5116183;28;20027;-58
2022/07/12 03:59:59;;;;;;;26.10;19.25;;;;;;;15.16;79.49;100154.66;5116466;28;20035;-55
2022/07/12 04:02:24;;;;;;;23.45;15.52;;;;;;;16.07;73.56;100149.50;5114512;28;20080;-56
2022/07/12 04:04:50;;;;;;;25.38;17.55;;;;;;;16.11;72.70;100149.81;5118698;28;20386;-56
2022/07/12 04:07:15;;;;;;;22.25;15.90;;;;;;;15.83;72.78;100153.59;5118341;28;20023;-56
2022/07/12 04:09:41;;;;;;;26.52;17.40;;;;;;;15.80;74.79;100156.78;5107653;28;20024;-56
2022/07/12 04:12:06;;;;;;;24.80;18.42;;;;;;;17.30;71.00;100161.22;5113487;28;20008;-56
2022/07/12 04:14:33;;;;;;;24.48;18.35;;;;;;;18.08;66.87;100155.75;5113896;28;20024;-56
2022/07/12 04:16:58;;;;;;;29.55;18.95;;;;;;;18.17;66.16;100161.50;5117695;28;20424;-56
2022/07/12 04:19:27;;;;;;;23.33;14.32;;;;;;;18.31;63.31;100150.91;5109352;28;20027;-57
2022/07/12 04:21:55;;;;;;;18.17;13.20;;;;;;;19.11;60.28;100153.78;5118149;28;20031;-56
2022/07/12 04:24:20;;;;;;;21.23;13.80;;;;;;;17.85;63.53;100159.81;5104415;27;20477;-56
2022/07/12 04:26:46;;;;;;;20.02;14.38;;;;;;;18.89;59.98;100161.47;5119620;27;20027;-56
2022/07/12 04:29:11;;;;;;;17.98;13.65;;;;;;;19.44;58.55;100165.09;5118537;27;20032;-57
2022/07/12 04:31:37;;;;;;;23.63;13.88;;;;;;;19.52;57.57;100171.84;5104012;27;20206;-57
2022/07/12 04:34:02;;;;;;;19.55;13.57;;;;;;;19.51;57.39;100176.47;5117510;27;20377;-57
2022/07/12 04:36:28;;;;;;;19.83;14.52;;;;;;;19.28;57.60;100185.28;5109541;27;20641;-56
2022/07/12 04:38:53;;;;;;;19.95;14.52;;;;;;;19.38;58.21;100182.53;5119182;27;20571;-57
2022/07/12 04:41:18;;;;;;;17.58;13.98;;;;;;;18.62;60.11;100187.00;5109793;27;20019;-59
2022/07/12 04:43:44;;;;;;;21.92;14.50;;;;;;;19.01;60.58;100189.13;5095374;27;20345;-57
2022/07/12 04:46:09;;;;;;;18.17;14.73;;;;;;;18.78;61.06;100189.72;5116920;27;20038;-57
2022/07/12 04:48:35;;;;;;;21.58;15.30;;;;;;;18.72;61.41;100200.56;5118607;27;20020;-57
2022/07/12 04:51:01;;;;;;;24.08;15.57;;;;;;;18.61;62.76;100193.50;5120485;27;20030;-56
2022/07/12 04:53:26;;;;;;;24.20;15.80;;;;;;;17.61;66.33;100201.97;5119959;27;20023;-57
2022/07/12 04:55:54;;;;;;;21.83;15.73;;;;;;;16.61;69.46;100205.44;5119433;27;20024;-57
2022/07/12 04:58:19;;;;;;;26.05;17.30;;;;;;;15.95;72.69;100211.03;5119633;27;20497;-56
2022/07/12 05:00:44;;;;;;;25.45;17.45;;;;;;;15.62;75.23;100212.78;5118999;27;20031;-57
2022/07/12 05:03:10;;;;;;;25.33;18.40;;;;;;;15.19;78.95;100208.97;5105470;27;20105;-56
2022/07/12 05:05:35;;;;;;;28.00;19.35;;;;;;;15.29;78.83;100214.50;5119484;27;20031;-56
2022/07/12 05:08:01;;;;;;;39.00;22.08;;;;;;;14.99;80.72;100219.50;5120564;27;20031;-56
2022/07/12 05:10:26;;;;;;;29.75;19.77;;;;;;;14.34;82.62;100226.22;5107271;27;20027;-55
2022/07/12 05:12:52;;;;;;;30.83;17.85;;;;;;;15.23;80.17;100218.22;5115594;27;20397;-55
2022/07/12 05:15:18;;;;;;;27.88;18.45;;;;;;;15.38;76.48;100223.03;5120870;27;20027;-56
2022/07/12 05:17:44;;;;;;;30.75;18.85;;;;;;;15.63;74.75;100219.00;5117324;27;20039;-56
2022/07/12 05:20:09;;;;;;;31.05;18.83;;;;;;;16.46;72.76;100218.84;5118267;27;20031;-56
2022/07/12 05:22:35;;;;;;;24.08;17.98;;;;;;;19.10;63.64;100224.72;5117546;27;20030;-57
2022/07/12 05:25:00;;;;;;;27.92;17.75;;;;;;;18.68;65.00;100226.63;5122394;27;20030;-56
2022/07/12 05:27:25;;;;;;;30.58;18.90;;;;;;;18.23;67.15;100228.22;5118708;27;20015;-56
2022/07/12 05:29:51;;;;;;;31.08;19.13;;;;;;;20.24;62.09;100221.25;5130311;27;20064;-57
2022/07/12 05:32:16;;;;;;;28.05;17.42;;;;;;;22.01;56.42;100229.88;5121022;27;20465;-57
2022/07/12 05:34:42;;;;;;;29.17;16.67;;;;;;;23.02;53.53;100234.88;5100418;28;20085;-57
2022/07/12 05:37:08;;;;;;;32.85;18.65;;;;;;;23.90;53.13;100232.06;5121931;27;20027;-57
2022/07/12 05:39:33;;;;;;;37.97;19.73;;;;;;;22.39;55.61;100247.09;5117801;27;20465;-57
2022/07/12 05:41:58;;;;;;;50.50;20.13;;;;;;;20.01;63.38;100245.34;5116039;27;20084;-57
2022/07/12 05:44:24;;;;;;;43.83;19.55;;;;;;;19.26;66.89;100241.81;5097993;27;20156;-57
2022/07/12 05:46:49;;;;;;;35.42;18.35;;;;;;;19.86;64.84;100247.34;5119402;27;20083;-57
2022/07/12 05:49:15;;;;;;;38.53;18.50;;;;;;;19.57;65.54;100247.97;5112801;27;20036;-57
2022/07/12 05:54:24;;;;;;;37.78;20.20;;;;;;;19.51;67.05;100254.50;5117309;27;20031;-57
2022/07/12 05:56:50;;;;;;;36.28;19.35;;;;;;;18.55;69.67;100248.91;5122502;27;20023;-57
2022/07/12 05:59:17;;;;;;;32.13;19.50;;;;;;;21.64;60.39;100258.75;5120753;27;20031;-57
2022/07/12 06:01:42;;;;;;;29.27;18.70;;;;;;;22.20;56.97;100256.41;5118863;27;20031;-56
2022/07/12 06:04:07;;;;;;;29.15;18.67;;;;;;;23.21;55.83;100256.69;5118179;27;20030;-57
2022/07/12 06:06:33;;;;;;;28.52;18.35;;;;;;;23.39;54.05;100251.47;5100366;28;20525;-56
2022/07/12 06:08:58;;;;;;;31.00;17.40;;;;;;;25.28;49.27;100262.78;5115498;27;20035;-57
2022/07/12 06:11:24;;;;;;;29.98;17.23;;;;;;;25.30;49.52;100269.56;5120031;27;20027;-57
2022/07/12 06:13:50;;;;;;;25.50;17.42;;;;;;;25.27;48.65;100263.91;5121013;27;20030;-57
2022/07/12 06:16:15;;;;;;;28.30;17.88;;;;;;;26.28;47.20;100264.84;5114898;27;20064;-57
2022/07/12 06:18:41;;;;;;;23.23;17.30;;;;;;;26.83;45.98;100268.88;5096701;27;20019;-56
2022/07/12 06:21:06;;;;;;;30.58;19.20;;;;;;;26.39;45.89;100266.16;5119271;27;20039;-58
2022/07/12 06:23:32;;;;;;;32.55;19.15;;;;;;;25.85;46.69;100262.00;5116128;27;20031;-58
2022/07/12 06:25:57;;;;;;;33.08;18.95;;;;;;;25.54;48.08;100268.41;5111500;27;20023;-58
2022/07/12 06:28:22;;;;;;;35.40;19.40;;;;;;;26.14;46.85;100258.72;5119293;27;20027;-57
2022/07/12 06:30:48;;;;;;;26.38;18.65;;;;;;;26.51;46.44;100261.94;5119669;27;20031;-56
2022/07/12 06:33:13;;;;;;;31.95;19.40;;;;;;;27.74;43.57;100264.84;5104056;27;20023;-57
2022/07/12 06:35:39;;;;;;;27.65;18.38;;;;;;;28.46;42.82;100269.63;5116068;27;20028;-57
2022/07/12 06:38:04;;;;;;;28.42;18.38;;;;;;;27.70;44.05;100269.41;5101245;27;20036;-57
2022/07/12 06:40:29;;;;;;;35.92;20.80;;;;;;;26.65;45.17;100268.09;5123255;27;20520;-56
2022/07/12 06:42:55;;;;;;;28.95;20.55;;;;;;;27.37;43.88;100262.94;5119198;27;20038;-57
2022/07/12 06:45:20;;;;;;;34.20;20.77;;;;;;;27.39;45.16;100264.22;5113996;27;20461;-57
2022/07/12 06:47:46;;;;;;;36.95;21.52;;;;;;;27.74;43.62;100264.06;5117613;27;20031;-57
2022/07/12 06:50:11;;;;;;;34.50;20.33;;;;;;;28.56;42.81;100267.25;5116448;27;21399;-57
2022/07/12 06:52:37;;;;;;;39.55;22.05;;;;;;;28.07;42.74;100266.94;5121651;27;20378;-57
2022/07/12 06:55:02;;;;;;;37.50;21.13;;;;;;;29.10;42.07;100268.34;5114946;27;20035;-57
2022/07/12 06:57:30;;;;;;;31.75;21.20;;;;;;;28.93;42.35;100263.78;5119336;27;20024;-57
2022/07/12 06:59:58;;;;;;;31.38;20.35;;;;;;;28.76;42.86;100270.31;5114459;27;20019;-57
2022/07/12 07:02:23;;;;;;;26.48;17.95;;;;;;;28.62;42.33;100269.78;5115963;27;20070;-57
2022/07/12 07:04:49;;;;;;;34.63;19.70;;;;;;;29.33;40.61;100264.03;5116089;27;20541;-57
2022/07/12 07:07:14;;;;;;;36.53;19.48;;;;;;;28.89;41.50;100268.38;5100982;27;20459;-57
2022/07/12 07:09:40;;;;;;;32.38;18.90;;;;;;;28.66;41.97;100256.94;5113456;27;20747;-57
2022/07/12 07:12:05;;;;;;;29.98;18.10;;;;;;;28.96;41.98;100263.13;5106116;28;20027;-57
2022/07/12 07:14:31;;;;;;;31.38;19.25;;;;;;;29.08;41.98;100265.13;5110732;27;20537;-57
2022/07/12 07:16:56;;;;;;;41.70;20.20;;;;;;;29.76;41.22;100272.91;5119298;27;20321;-57
2022/07/12 07:19:24;;;;;;;52.58;19.92;;;;;;;29.93;40.96;100272.66;5113353;27;20419;-57
2022/07/12 07:21:50;;;;;;;83.15;22.15;;;;;;;30.50;40.03;100281.88;5115962;27;20031;-57
2022/07/12 07:24:15;;;;;;;103.10;23.40;;;;;;;29.37;41.62;100275.97;5122125;27;20095;-57
2022/07/12 07:26:40;;;;;;;80.78;22.35;;;;;;;28.91;42.61;100277.94;5114380;27;20020;-57
2022/07/12 07:31:50;;;;;;;72.45;22.80;;;;;;;29.41;42.03;100276.91;5120402;27;20070;-56
2022/07/12 07:34:15;;;;;;;69.15;23.35;;;;;;;29.43;42.08;100266.34;5121737;27;20011;-57
2022/07/12 07:36:41;;;;;;;52.63;22.45;;;;;;;29.53;41.18;100264.25;5115154;27;20022;-57
2022/07/12 07:39:06;;;;;;;48.88;22.42;;;;;;;28.67;43.43;100266.81;5119548;27;20397;-57
2022/07/12 07:41:32;;;;;;;49.17;21.67;;;;;;;28.40;43.71;100271.72;5113308;27;20046;-57
2022/07/12 07:43:57;;;;;;;45.88;21.55;;;;;;;28.75;43.11;100268.69;5105186;28;20039;-57
2022/07/12 07:46:23;;;;;;;54.60;21.80;;;;;;;27.82;44.91;100277.00;5118857;27;20031;-57
2022/07/12 07:48:48;;;;;;;48.40;21.92;;;;;;;28.42;43.73;100276.91;5113137;28;20024;-58
2022/07/12 07:51:13;;;;;;;55.17;21.30;;;;;;;27.94;44.37;100284.53;5118654;28;20038;-57
2022/07/12 07:53:39;;;;;;;46.65;18.98;;;;;;;30.25;40.52;100292.19;5115294;28;20016;-57
2022/07/12 07:56:04;;;;;;;39.20;18.92;;;;;;;29.56;41.61;100297.50;5110790;28;20032;-57
2022/07/12 07:58:30;;;;;;;36.75;17.70;;;;;;;29.25;41.47;100298.03;5120415;28;20118;-56
2022/07/12 08:00:55;;;;;;;38.00;16.13;;;;;;;28.18;44.98;100295.72;5113107;27;20035;-56
2022/07/12 08:03:21;;;;;;;31.42;15.25;;;;;;;29.24;42.67;100299.19;5122879;27;20529;-57
2022/07/12 08:05:47;;;;;;;43.97;16.40;;;;;;;27.53;45.38;100297.84;5127784;27;20031;-57
2022/07/12 08:08:12;;;;;;;31.27;14.73;;;;;;;29.23;42.45;100294.81;5091389;27;20481;-57
2022/07/12 08:10:38;;;;;;;33.38;15.18;;;;;;;28.78;43.29;100290.06;5124138;27;20027;-57
2022/07/12 08:13:03;;;;;;;33.10;15.85;;;;;;;30.06;40.32;100287.28;5121673;27;20492;-58
2022/07/12 08:15:29;;;;;;;37.03;13.98;;;;;;;30.25;40.10;100295.78;5115715;27;20040;-57
2022/07/12 08:17:54;;;;;;;33.28;14.10;;;;;;;29.78;40.92;100288.00;5114075;27;20024;-57
2022/07/12 08:20:20;;;;;;;46.83;15.65;;;;;;;29.97;40.24;100281.84;5120236;27;20023;-57
2022/07/12 08:22:45;;;;;;;45.53;15.25;;;;;;;28.51;42.35;100275.72;5100289;28;20023;-58
2022/07/12 08:25:12;;;;;;;33.72;14.40;;;;;;;29.20;41.85;100274.22;5119770;27;20027;-57
2022/07/12 08:27:37;;;;;;;23.17;11.95;;;;;;;28.92;40.58;100275.97;5103220;27;20414;-57
2022/07/12 08:30:03;;;;;;;27.48;14.00;;;;;;;28.61;42.49;100271.75;5117600;27;20024;-58
2022/07/12 08:32:28;;;;;;;35.67;13.88;;;;;;;28.65;42.11;100264.38;5122482;27;20028;-57
2022/07/12 08:34:54;;;;;;;34.33;12.93;;;;;;;27.23;45.55;100260.38;5116889;27;20039;-58
2022/07/12 08:37:19;;;;;;;26.65;11.27;;;;;;;28.11;43.29;100261.59;5124374;27;20027;-57
2022/07/12 08:39:45;;;;;;;17.73;7.80;;;;;;;28.00;41.84;100260.34;5099789;27;20038;-56
2022/07/12 08:42:11;;;;;;;24.20;10.55;;;;;;;28.44;41.54;100261.63;5124733;27;20442;-58
2022/07/12 08:44:36;;;;;;;20.00;9.55;;;;;;;28.07;42.79;100263.38;5083516;27;20027;-57
2022/07/12 08:47:02;;;;;;;15.05;6.72;;;;;;;28.79;38.83;100258.59;5125117;27;20090;-57
2022/07/12 08:49:27;;;;;;;19.40;8.95;;;;;;;27.12;42.59;100254.41;5126061;27;20046;-57
2022/07/12 08:51:53;;;;;;;22.88;9.70;;;;;;;28.79;40.26;100262.16;5118539;27;20036;-57
2022/07/12 08:54:18;;;;;;;16.30;6.40;;;;;;;28.73;39.37;100262.69;5102140;27;20035;-57
2022/07/12 08:56:44;;;;;;;22.13;8.35;;;;;;;29.90;38.46;100262.28;5126013;27;20323;-57
2022/07/12 08:59:20;;;;;;;17.08;7.45;;;;;;;29.41;38.64;100276.91;5121298;27;20093;-57
2022/07/12 09:01:50;;;;;;;16.45;6.85;;;;;;;29.22;38.40;100273.88;5119333;27;20024;-57
2022/07/12 09:04:22;;;;;;;17.20;6.47;;;;;;;30.12;37.62;100274.81;5116920;27;20039;-57
2022/07/12 09:06:48;;;;;;;16.15;6.90;;;;;;;29.48;38.98;100279.13;5119277;27;20085;-57
2022/07/12 09:09:30;;;;;;;21.30;7.40;;;;;;;27.73;41.85;100284.44;5120875;27;20023;-57
2022/07/12 09:11:55;;;;;;;25.90;8.27;;;;;;;27.26;42.76;100279.81;5100135;28;20020;-57
2022/07/12 09:14:22;;;;;;;25.90;9.95;;;;;;;28.15;42.50;100268.81;5118094;27;20054;-57
2022/07/12 09:17:17;;;;;;;27.83;9.18;;;;;;;29.99;39.50;100270.47;5115761;27;20027;-56
2022/07/12 09:19:54;;;;;;;27.55;9.10;;;;;;;29.02;40.43;100268.06;5082556;28;20539;-56
2022/07/12 09:22:19;;;;;;;34.03;8.35;;;;;;;29.30;39.21;100266.66;5121258;27;20072;-56
2022/07/12 09:24:45;;;;;;;35.95;7.47;;;;;;;28.92;40.48;100260.22;5101836;28;20027;-56
2022/07/12 09:27:10;;;;;;;24.60;7.88;;;;;;;28.98;39.51;100261.63;5122496;27;20022;-56
2022/07/12 09:29:48;;;;;;;30.50;7.47;;;;;;;29.58;38.40;100266.78;5105094;27;20454;-56
2022/07/12 09:37:42;;;;;;;25.35;8.13;;;;;;;28.43;39.45;100249.00;5117510;27;20398;-56
2022/07/12 09:40:09;;;;;;;30.02;7.60;;;;;;;29.67;38.24;100248.97;5116545;27;20032;-56
2022/07/12 09:42:34;;;;;;;23.23;7.03;;;;;;;29.13;37.98;100256.63;5116022;27;20050;-56
2022/07/12 09:45:00;;;;;;;17.60;5.53;;;;;;;30.09;36.34;100247.88;5114306;27;20027;-56
2022/07/12 09:47:26;;;;;;;26.48;5.78;;;;;;;29.62;36.93;100251.13;5116496;27;20016;-56
2022/07/12 09:49:52;;;;;;;25.50;5.22;;;;;;;29.24;37.72;100257.78;5097832;27;20024;-56
2022/07/12 09:52:21;;;;;;;13.82;4.72;;;;;;;28.39;39.37;100248.06;5123839;27;20023;-56
2022/07/12 09:54:48;;;;;;;17.25;4.82;;;;;;;29.19;37.69;100258.03;5123051;27;20043;-55
2022/07/12 09:57:21;;;;;;;10.95;4.40;;;;;;;26.87;40.35;100256.91;5080556;27;20031;-56
2022/07/12 09:59:50;;;;;;;10.23;4.20;;;;;;;28.21;39.42;100241.06;5110433;27;20465;-56
2022/07/12 10:02:15;;;;;;;12.07;4.25;;;;;;;28.77;38.99;100244.31;5120161;27;20028;-56
2022/07/12 10:04:41;;;;;;;10.80;4.50;;;;;;;27.31;40.93;100246.59;5075505;27;20019;-56
2022/07/12 10:07:08;;;;;;;9.90;4.20;;;;;;;28.18;39.72;100240.63;5115889;27;20024;-56
2022/07/12 10:09:33;;;;;;;10.10;3.90;;;;;;;29.62;37.73;100246.41;5086998;28;20057;-56
2022/07/12 10:11:59;;;;;;;22.00;4.63;;;;;;;28.89;38.52;100247.13;5118182;27;20458;-56
2022/07/12 10:14:24;;;;;;;9.95;4.00;;;;;;;28.44;38.46;100249.81;5101987;27;20461;-56
2022/07/12 10:16:51;;;;;;;9.70;4.00;;;;;;;27.73;39.49;100252.25;5093115;27;20035;-56
2022/07/12 10:19:27;;;;;;;11.43;3.53;;;;;;;28.05;38.29;100249.94;5117997;27;20028;-56
2022/07/12 10:21:59;;;;;;;10.73;4.00;;;;;;;26.88;40.64;100258.53;5112307;27;20043;-56
2022/07/12 10:24:31;;;;;;;11.55;3.67;;;;;;;27.50;40.05;100259.16;5117107;27;20015;-56
2022/07/12 10:27:00;;;;;;;13.65;3.58;;;;;;;28.15;38.57;100260.56;5118046;27;20034;-57
2022/07/12 10:29:25;;;;;;;7.15;2.63;;;;;;;27.94;36.58;100257.00;5104850;28;20037;-57
2022/07/12 10:31:51;;;;;;;5.95;1.92;;;;;;;26.83;37.72;100264.22;5120792;27;20035;-57
2022/07/12 10:34:23;;;;;;;7.07;2.08;;;;;;;27.56;37.26;100257.00;5116078;27;20461;-57
2022/07/12 10:36:54;;;;;;;3.35;2.20;;;;;;;27.82;36.65;100257.72;5115024;27;20035;-57
2022/07/12 10:39:21;;;;;;;6.88;2.38;;;;;;;26.71;38.64;100260.47;5119849;27;20079;-57
2022/07/12 10:42:05;;;;;;;11.98;2.45;;;;;;;25.78;40.57;100251.50;5112475;27;20500;-57
2022/07/12 10:44:41;;;;;;;11.75;2.65;;;;;;;26.34;39.21;100257.25;5112058;27;20031;-56
2022/07/12 10:47:07;;;;;;;11.38;2.78;;;;;;;25.64;40.84;100250.84;5113236;27;20070;-56
2022/07/12 10:49:33;;;;;;;8.90;2.50;;;;;;;26.97;38.88;100265.94;5115916;27;20126;-57
2022/07/12 10:52:10;;;;;;;6.53;2.70;;;;;;;26.31;39.18;100255.97;5117231;27;20047;-56
2022/07/12 10:54:59;;;;;;;3.58;2.10;;;;;;;27.13;38.54;100250.50;5124938;27;20079;-56
2022/07/12 10:57:42;;;;;;;10.82;2.50;;;;;;;25.89;40.13;100250.09;5111184;27;20027;-57
2022/07/12 11:00:11;;;;;;;6.45;2.25;;;;;;;26.70;38.80;100247.88;5113829;27;20105;-57
2022/07/12 11:02:37;;;;;;;4.85;2.30;;;;;;;26.52;38.88;100255.31;5101421;27;20099;-56
2022/07/12 11:05:03;;;;;;;8.50;2.50;;;;;;;26.35;39.39;100247.88;5118336;27;20031;-57
2022/07/12 11:07:28;;;;;;;12.60;2.60;;;;;;;26.27;39.71;100238.50;5121863;27;20015;-56
2022/07/12 11:09:54;;;;;;;8.68;2.83;;;;;;;26.75;39.79;100239.47;5096064;27;20042;-56
2022/07/12 11:12:19;;;;;;;7.10;2.28;;;;;;;27.44;37.21;100233.75;5119204;27;20515;-56
2022/07/12 11:14:45;;;;;;;7.00;2.60;;;;;;;26.62;39.37;100242.06;5118171;27;20035;-57
2022/07/12 11:17:10;;;;;;;10.18;2.90;;;;;;;26.43;39.57;100234.16;5113017;27;20031;-56
2022/07/12 11:19:36;;;;;;;6.30;2.50;;;;;;;26.56;39.39;100237.06;5120293;27;20473;-57